sensor_id;sensor_type;location;lat;lon;timestamp;pressure;altitude;pressure_sealevel;temperature;humidity
28344;BME280;15597;50.914;6.638;2023-05-12T00:02:12;100661.03;;;19.35;55.43
28344;BME280;15597;50.914;6.638;2023-05-12T00:04:37;100653.91;;;19.36;55.20
28344;BME280;15597;50.914;6.638;2023-05-12T00:07:04;100657.44;;;19.36;55.39
28344;BME280;15597;50.914;6.638;2023-05-12T00:09:31;100647.59;;;19.38;55.59
28344;BME280;15597;50.914;6.638;2023-05-12T00:11:57;100656.38;;;19.39;55.09
28344;BME280;15597;50.914;6.638;2023-05-12T00:14:23;100656.50;;;19.37;55.26
28344;BME280;15597;50.914;6.638;2023-05-12T00:16:48;100655.53;;;19.38;55.32
28344;BME280;15597;50.914;6.638;2023-05-12T00:19:16;100652.88;;;19.38;55.05
28344;BME280;15597;50.914;6.638;2023-05-12T00:21:43;100652.88;;;19.38;55.12
28344;BME280;15597;50.914;6.638;2023-05-12T00:24:08;100653.84;;;19.37;55.01
28344;BME280;15597;50.914;6.638;2023-05-12T00:26:34;100648.53;;;19.37;55.40
28344;BME280;15597;50.914;6.638;2023-05-12T00:28:59;100650.41;;;19.35;55.22
28344;BME280;15597;50.914;6.638;2023-05-12T00:31:25;100644.06;;;19.38;55.23
28344;BME280;15597;50.914;6.638;2023-05-12T00:33:51;100639.63;;;19.38;55.64
28344;BME280;15597;50.914;6.638;2023-05-12T00:36:16;100632.59;;;19.37;55.37
28344;BME280;15597;50.914;6.638;2023-05-12T00:38:42;100644.16;;;19.36;55.54
28344;BME280;15597;50.914;6.638;2023-05-12T00:41:07;100642.44;;;19.35;55.78
28344;BME280;15597;50.914;6.638;2023-05-12T00:43:33;100644.34;;;19.33;55.84
28344;BME280;15597;50.914;6.638;2023-05-12T00:45:59;100632.19;;;19.29;55.61
28344;BME280;15597;50.914;6.638;2023-05-12T00:48:26;100631.59;;;19.24;55.46
28344;BME280;15597;50.914;6.638;2023-05-12T00:50:53;100632.56;;;19.23;55.78
28344;BME280;15597;50.914;6.638;2023-05-12T00:53:19;100638.03;;;19.20;55.41
28344;BME280;15597;50.914;6.638;2023-05-12T00:55:45;100626.66;;;19.18;55.66
28344;BME280;15597;50.914;6.638;2023-05-12T00:58:11;100623.25;;;19.16;55.80
28344;BME280;15597;50.914;6.638;2023-05-12T01:00:36;100631.19;;;19.16;55.91
28344;BME280;15597;50.914;6.638;2023-05-12T01:03:02;100623.31;;;19.14;55.92
28344;BME280;15597;50.914;6.638;2023-05-12T01:05:35;100632.38;;;19.10;55.82
28344;BME280;15597;50.914;6.638;2023-05-12T01:08:04;100626.13;;;19.11;55.77
28344;BME280;15597;50.914;6.638;2023-05-12T01:10:30;100626.25;;;19.09;56.04
28344;BME280;15597;50.914;6.638;2023-05-12T01:12:56;100623.72;;;19.06;56.12
28344;BME280;15597;50.914;6.638;2023-05-12T01:15:21;100624.84;;;19.02;56.16
28344;BME280;15597;50.914;6.638;2023-05-12T01:17:56;100619.97;;;18.94;56.09
28344;BME280;15597;50.914;6.638;2023-05-12T01:20:27;100619.03;;;18.95;56.11
28344;BME280;15597;50.914;6.638;2023-05-12T01:22:54;100619.03;;;18.95;56.27
28344;BME280;15597;50.914;6.638;2023-05-12T01:25:23;100619.84;;;18.96;56.31
28344;BME280;15597;50.914;6.638;2023-05-12T01:27:52;100613.78;;;18.94;56.24
28344;BME280;15597;50.914;6.638;2023-05-12T01:30:20;100618.16;;;18.95;56.51
28344;BME280;15597;50.914;6.638;2023-05-12T01:32:46;100616.44;;;18.94;56.60
28344;BME280;15597;50.914;6.638;2023-05-12T01:35:12;100609.44;;;18.93;56.60
28344;BME280;15597;50.914;6.638;2023-05-12T01:37:47;100607.72;;;18.92;56.55
28344;BME280;15597;50.914;6.638;2023-05-12T01:40:12;100612.19;;;18.91;56.77
28344;BME280;15597;50.914;6.638;2023-05-12T01:42:40;100614.06;;;18.89;56.91
28344;BME280;15597;50.914;6.638;2023-05-12T01:45:07;100608.94;;;18.86;56.88
28344;BME280;15597;50.914;6.638;2023-05-12T01:47:33;100605.50;;;18.84;57.01
28344;BME280;15597;50.914;6.638;2023-05-12T01:50:07;100596.88;;;18.80;57.09
28344;BME280;15597;50.914;6.638;2023-05-12T01:52:32;100597.81;;;18.79;56.89
28344;BME280;15597;50.914;6.638;2023-05-12T01:54:58;100597.81;;;18.79;57.07
28344;BME280;15597;50.914;6.638;2023-05-12T01:57:25;100591.66;;;18.79;57.08
28344;BME280;15597;50.914;6.638;2023-05-12T01:59:54;100594.31;;;18.79;57.06
28344;BME280;15597;50.914;6.638;2023-05-12T02:02:20;100594.22;;;18.80;57.09
28344;BME280;15597;50.914;6.638;2023-05-12T02:04:45;100594.22;;;18.80;57.06
28344;BME280;15597;50.914;6.638;2023-05-12T02:07:12;100589.84;;;18.79;57.11
28344;BME280;15597;50.914;6.638;2023-05-12T02:09:38;100580.19;;;18.78;56.86
28344;BME280;15597;50.914;6.638;2023-05-12T02:12:03;100577.53;;;18.78;56.92
28344;BME280;15597;50.914;6.638;2023-05-12T02:14:30;100561.56;;;18.80;57.30
28344;BME280;15597;50.914;6.638;2023-05-12T02:16:56;100545.66;;;18.80;57.17
28344;BME280;15597;50.914;6.638;2023-05-12T02:19:23;100537.00;;;18.76;56.89
28344;BME280;15597;50.914;6.638;2023-05-12T02:21:48;100541.56;;;18.74;56.82
28344;BME280;15597;50.914;6.638;2023-05-12T02:24:14;100553.03;;;18.75;56.80
28344;BME280;15597;50.914;6.638;2023-05-12T02:26:41;100549.59;;;18.73;56.93
28344;BME280;15597;50.914;6.638;2023-05-12T02:29:07;100549.84;;;18.68;57.35
28344;BME280;15597;50.914;6.638;2023-05-12T02:31:33;100549.25;;;18.63;57.34
28344;BME280;15597;50.914;6.638;2023-05-12T02:33:58;100554.56;;;18.63;56.95
28344;BME280;15597;50.914;6.638;2023-05-12T02:36:25;100562.50;;;18.63;56.99
28344;BME280;15597;50.914;6.638;2023-05-12T02:38:51;100573.88;;;18.65;56.79
28344;BME280;15597;50.914;6.638;2023-05-12T02:41:17;100566.69;;;18.67;56.80
28344;BME280;15597;50.914;6.638;2023-05-12T02:43:43;100575.41;;;18.69;56.60
28344;BME280;15597;50.914;6.638;2023-05-12T02:46:08;100576.09;;;18.73;56.97
28344;BME280;15597;50.914;6.638;2023-05-12T02:48:34;100579.34;;;18.78;56.65
28344;BME280;15597;50.914;6.638;2023-05-12T02:50:59;100572.06;;;18.81;56.52
28344;BME280;15597;50.914;6.638;2023-05-12T02:53:25;100570.13;;;18.85;56.46
28344;BME280;15597;50.914;6.638;2023-05-12T02:55:52;100576.00;;;18.90;56.55
28344;BME280;15597;50.914;6.638;2023-05-12T02:58:17;100570.59;;;18.92;56.51
28344;BME280;15597;50.914;6.638;2023-05-12T03:00:43;100570.44;;;18.95;56.16
28344;BME280;15597;50.914;6.638;2023-05-12T03:03:09;100569.44;;;18.97;56.22
28344;BME280;15597;50.914;6.638;2023-05-12T03:05:34;100571.91;;;19.01;56.19
28344;BME280;15597;50.914;6.638;2023-05-12T03:08:00;100567.47;;;19.01;56.02
28344;BME280;15597;50.914;6.638;2023-05-12T03:10:26;100565.75;;;19.00;55.80
28344;BME280;15597;50.914;6.638;2023-05-12T03:12:52;100575.41;;;19.01;55.65
28344;BME280;15597;50.914;6.638;2023-05-12T03:15:18;100567.56;;;19.00;55.60
28344;BME280;15597;50.914;6.638;2023-05-12T03:17:43;100566.63;;;19.01;55.79
28344;BME280;15597;50.914;6.638;2023-05-12T03:20:09;100570.09;;;19.01;55.66
28344;BME280;15597;50.914;6.638;2023-05-12T03:22:35;100571.81;;;19.02;55.62
28344;BME280;15597;50.914;6.638;2023-05-12T03:25:02;100570.03;;;19.03;55.60
28344;BME280;15597;50.914;6.638;2023-05-12T03:27:30;100565.56;;;19.03;55.85
28344;BME280;15597;50.914;6.638;2023-05-12T03:29:57;100566.34;;;19.05;55.65
28344;BME280;15597;50.914;6.638;2023-05-12T03:32:25;100561.91;;;19.06;55.84
28344;BME280;15597;50.914;6.638;2023-05-12T03:34:51;100560.09;;;19.06;55.61
28344;BME280;15597;50.914;6.638;2023-05-12T03:37:17;100568.16;;;19.05;55.51
28344;BME280;15597;50.914;6.638;2023-05-12T03:39:43;100569.75;;;19.07;55.57
28344;BME280;15597;50.914;6.638;2023-05-12T03:42:09;100565.38;;;19.06;55.82
28344;BME280;15597;50.914;6.638;2023-05-12T03:44:35;100568.03;;;19.06;55.48
28344;BME280;15597;50.914;6.638;2023-05-12T03:47:00;100566.34;;;19.05;55.51
28344;BME280;15597;50.914;6.638;2023-05-12T03:49:26;100562.75;;;19.06;55.66
28344;BME280;15597;50.914;6.638;2023-05-12T03:51:51;100563.69;;;19.05;55.90
28344;BME280;15597;50.914;6.638;2023-05-12T03:54:17;100562.75;;;19.06;55.37
28344;BME280;15597;50.914;6.638;2023-05-12T03:56:43;100560.09;;;19.06;55.23
28344;BME280;15597;50.914;6.638;2023-05-12T03:59:09;100556.59;;;19.06;55.13
28344;BME280;15597;50.914;6.638;2023-05-12T04:01:36;100567.28;;;19.04;55.00
28344;BME280;15597;50.914;6.638;2023-05-12T04:04:02;100566.50;;;19.02;55.07
28344;BME280;15597;50.914;6.638;2023-05-12T04:06:28;100570.09;;;19.01;55.07
28344;BME280;15597;50.914;6.638;2023-05-12T04:08:53;100567.56;;;19.00;55.23
28344;BME280;15597;50.914;6.638;2023-05-12T04:11:19;100577.28;;;18.99;54.98
28344;BME280;15597;50.914;6.638;2023-05-12T04:13:44;100573.69;;;19.00;55.26
28344;BME280;15597;50.914;6.638;2023-05-12T04:16:10;100581.47;;;19.03;55.11
28344;BME280;15597;50.914;6.638;2023-05-12T04:18:36;100585.84;;;19.04;55.22
28344;BME280;15597;50.914;6.638;2023-05-12T04:21:01;100577.81;;;19.06;55.03
28344;BME280;15597;50.914;6.638;2023-05-12T04:23:28;100580.34;;;19.07;55.13
28344;BME280;15597;50.914;6.638;2023-05-12T04:25:53;100581.16;;;19.09;55.14
28344;BME280;15597;50.914;6.638;2023-05-12T04:28:19;100581.06;;;19.11;55.48
28344;BME280;15597;50.914;6.638;2023-05-12T04:30:45;100583.63;;;19.12;55.55
28344;BME280;15597;50.914;6.638;2023-05-12T04:33:11;100584.56;;;19.11;55.64
28344;BME280;15597;50.914;6.638;2023-05-12T04:35:37;100581.94;;;19.11;55.29
28344;BME280;15597;50.914;6.638;2023-05-12T04:38:03;100582.00;;;19.10;55.40
28344;BME280;15597;50.914;6.638;2023-05-12T04:40:29;100585.53;;;19.10;55.32
28344;BME280;15597;50.914;6.638;2023-05-12T04:42:55;100585.66;;;19.07;55.13
28344;BME280;15597;50.914;6.638;2023-05-12T04:45:20;100587.53;;;19.05;55.27
28344;BME280;15597;50.914;6.638;2023-05-12T04:47:46;100596.44;;;19.04;55.19
28344;BME280;15597;50.914;6.638;2023-05-12T04:50:11;100594.75;;;19.03;55.50
28344;BME280;15597;50.914;6.638;2023-05-12T04:52:44;100596.44;;;19.04;55.59
28344;BME280;15597;50.914;6.638;2023-05-12T04:55:10;100596.44;;;19.04;55.60
28344;BME280;15597;50.914;6.638;2023-05-12T04:57:36;100600.03;;;19.03;55.14
28344;BME280;15597;50.914;6.638;2023-05-12T05:00:03;100606.22;;;19.04;55.37
28344;BME280;15597;50.914;6.638;2023-05-12T05:02:31;100607.06;;;19.04;55.73
28344;BME280;15597;50.914;6.638;2023-05-12T05:04:57;100608.75;;;19.05;55.81
28344;BME280;15597;50.914;6.638;2023-05-12T05:07:23;100613.06;;;19.08;55.82
28344;BME280;15597;50.914;6.638;2023-05-12T05:09:49;100612.88;;;19.11;55.75
28344;BME280;15597;50.914;6.638;2023-05-12T05:12:15;100612.69;;;19.14;55.86
28344;BME280;15597;50.914;6.638;2023-05-12T05:14:40;100619.81;;;19.14;56.02
28344;BME280;15597;50.914;6.638;2023-05-12T05:17:06;100625.13;;;19.14;56.15
28344;BME280;15597;50.914;6.638;2023-05-12T05:19:33;100621.69;;;19.11;56.05
28344;BME280;15597;50.914;6.638;2023-05-12T05:21:59;100627.16;;;19.08;56.09
28344;BME280;15597;50.914;6.638;2023-05-12T05:24:24;100632.72;;;19.04;55.83
28344;BME280;15597;50.914;6.638;2023-05-12T05:26:50;100631.25;;;18.98;56.20
28344;BME280;15597;50.914;6.638;2023-05-12T05:29:16;100637.50;;;18.97;56.19
28344;BME280;15597;50.914;6.638;2023-05-12T05:31:42;100642.13;;;18.93;55.90
28344;BME280;15597;50.914;6.638;2023-05-12T05:34:07;100641.41;;;18.90;56.10
28344;BME280;15597;50.914;6.638;2023-05-12T05:36:33;100644.25;;;18.87;56.45
28344;BME280;15597;50.914;6.638;2023-05-12T05:38:58;100637.41;;;18.82;56.12
28344;BME280;15597;50.914;6.638;2023-05-12T05:41:24;100639.38;;;18.79;56.32
28344;BME280;15597;50.914;6.638;2023-05-12T05:43:50;100641.44;;;18.74;56.23
28344;BME280;15597;50.914;6.638;2023-05-12T05:46:15;100643.97;;;18.75;56.03
28344;BME280;15597;50.914;6.638;2023-05-12T05:48:41;100645.09;;;18.71;56.16
28344;BME280;15597;50.914;6.638;2023-05-12T05:51:08;100652.19;;;18.71;56.48
28344;BME280;15597;50.914;6.638;2023-05-12T05:53:36;100656.63;;;18.70;56.78
28344;BME280;15597;50.914;6.638;2023-05-12T05:56:02;100655.69;;;18.71;56.33
28344;BME280;15597;50.914;6.638;2023-05-12T05:58:28;100659.28;;;18.70;56.69
28344;BME280;15597;50.914;6.638;2023-05-12T06:00:54;100661.00;;;18.71;56.11
28344;BME280;15597;50.914;6.638;2023-05-12T06:03:20;100662.88;;;18.69;56.53
28344;BME280;15597;50.914;6.638;2023-05-12T06:05:46;100665.53;;;18.69;56.69
28344;BME280;15597;50.914;6.638;2023-05-12T06:08:11;100672.69;;;18.67;56.55
28344;BME280;15597;50.914;6.638;2023-05-12T06:10:38;100682.47;;;18.66;56.75
28344;BME280;15597;50.914;6.638;2023-05-12T06:13:04;100684.34;;;18.64;56.74
28344;BME280;15597;50.914;6.638;2023-05-12T06:15:31;100680.03;;;18.62;56.64
28344;BME280;15597;50.914;6.638;2023-05-12T06:17:57;100688.16;;;18.59;56.40
28344;BME280;15597;50.914;6.638;2023-05-12T06:20:23;100688.31;;;18.56;56.63
28344;BME280;15597;50.914;6.638;2023-05-12T06:22:49;100689.25;;;18.54;56.80
28344;BME280;15597;50.914;6.638;2023-05-12T06:25:15;100685.84;;;18.52;56.97
28344;BME280;15597;50.914;6.638;2023-05-12T06:27:41;100689.50;;;18.50;56.76
28344;BME280;15597;50.914;6.638;2023-05-12T06:30:07;100698.47;;;18.47;57.02
28344;BME280;15597;50.914;6.638;2023-05-12T06:32:33;100693.34;;;18.44;57.20
28344;BME280;15597;50.914;6.638;2023-05-12T06:34:59;100699.56;;;18.43;56.98
28344;BME280;15597;50.914;6.638;2023-05-12T06:37:25;100698.63;;;18.44;57.17
28344;BME280;15597;50.914;6.638;2023-05-12T06:39:51;100702.22;;;18.43;57.46
28344;BME280;15597;50.914;6.638;2023-05-12T06:42:17;100702.22;;;18.43;57.13
28344;BME280;15597;50.914;6.638;2023-05-12T06:44:48;100701.28;;;18.44;57.04
28344;BME280;15597;50.914;6.638;2023-05-12T06:47:14;100705.66;;;18.45;57.34
28344;BME280;15597;50.914;6.638;2023-05-12T06:49:39;100707.53;;;18.43;56.97
28344;BME280;15597;50.914;6.638;2023-05-12T06:52:05;100715.38;;;18.45;57.34
28344;BME280;15597;50.914;6.638;2023-05-12T06:54:31;100718.91;;;18.45;57.53
28344;BME280;15597;50.914;6.638;2023-05-12T06:56:57;100712.66;;;18.46;57.49
28344;BME280;15597;50.914;6.638;2023-05-12T06:59:22;100722.22;;;18.49;57.45
28344;BME280;15597;50.914;6.638;2023-05-12T07:01:48;100715.06;;;18.51;57.14
28344;BME280;15597;50.914;6.638;2023-05-12T07:04:14;100722.00;;;18.53;57.18
28344;BME280;15597;50.914;6.638;2023-05-12T07:06:39;100723.72;;;18.54;57.40
28344;BME280;15597;50.914;6.638;2023-05-12T07:09:05;100728.00;;;18.57;57.23
28344;BME280;15597;50.914;6.638;2023-05-12T07:11:31;100729.72;;;18.58;57.11
28344;BME280;15597;50.914;6.638;2023-05-12T07:13:56;100727.91;;;18.59;57.36
28344;BME280;15597;50.914;6.638;2023-05-12T07:16:22;100731.50;;;18.58;57.00
28344;BME280;15597;50.914;6.638;2023-05-12T07:18:47;100730.72;;;18.56;56.96
28344;BME280;15597;50.914;6.638;2023-05-12T07:21:13;100731.66;;;18.54;56.76
28344;BME280;15597;50.914;6.638;2023-05-12T07:23:39;100732.44;;;18.57;57.21
28344;BME280;15597;50.914;6.638;2023-05-12T07:26:05;100735.03;;;18.58;57.03
28344;BME280;15597;50.914;6.638;2023-05-12T07:28:32;100740.22;;;18.60;57.12
28344;BME280;15597;50.914;6.638;2023-05-12T07:31:02;100733.91;;;18.62;56.85
28344;BME280;15597;50.914;6.638;2023-05-12T07:33:28;100738.28;;;18.63;56.88
28344;BME280;15597;50.914;6.638;2023-05-12T07:35:54;100743.47;;;18.65;56.77
28344;BME280;15597;50.914;6.638;2023-05-12T07:38:21;100739.06;;;18.65;56.75
28344;BME280;15597;50.914;6.638;2023-05-12T07:40:47;100750.50;;;18.66;56.73
28344;BME280;15597;50.914;6.638;2023-05-12T07:43:12;100746.06;;;18.66;56.78
28344;BME280;15597;50.914;6.638;2023-05-12T07:45:38;100743.31;;;18.68;56.76
28344;BME280;15597;50.914;6.638;2023-05-12T07:48:03;100752.22;;;18.67;56.86
28344;BME280;15597;50.914;6.638;2023-05-12T07:50:29;100752.13;;;18.68;56.80
28344;BME280;15597;50.914;6.638;2023-05-12T07:52:54;100757.34;;;18.70;57.06
28344;BME280;15597;50.914;6.638;2023-05-12T07:55:21;100751.03;;;18.73;57.04
28344;BME280;15597;50.914;6.638;2023-05-12T07:57:48;100757.03;;;18.76;56.91
28344;BME280;15597;50.914;6.638;2023-05-12T08:00:14;100753.25;;;18.80;57.01
28344;BME280;15597;50.914;6.638;2023-05-12T08:02:41;100756.63;;;18.84;56.77
28344;BME280;15597;50.914;6.638;2023-05-12T08:05:07;100761.81;;;18.86;56.83
28344;BME280;15597;50.914;6.638;2023-05-12T08:07:34;100763.53;;;18.87;56.79
28344;BME280;15597;50.914;6.638;2023-05-12T08:10:00;100758.94;;;18.90;56.90
28344;BME280;15597;50.914;6.638;2023-05-12T08:12:26;100763.31;;;18.91;56.88
28344;BME280;15597;50.914;6.638;2023-05-12T08:14:52;100770.31;;;18.92;56.75
28344;BME280;15597;50.914;6.638;2023-05-12T08:17:17;100764.91;;;18.94;56.61
28344;BME280;15597;50.914;6.638;2023-05-12T08:19:43;100778.94;;;18.96;56.32
28344;BME280;15597;50.914;6.638;2023-05-12T08:22:08;100781.56;;;18.97;56.67
28344;BME280;15597;50.914;6.638;2023-05-12T08:24:34;100776.16;;;18.99;56.63
28344;BME280;15597;50.914;6.638;2023-05-12T08:26:59;100783.94;;;19.02;56.65
28344;BME280;15597;50.914;6.638;2023-05-12T08:29:25;100780.19;;;19.06;56.43
28344;BME280;15597;50.914;6.638;2023-05-12T08:31:50;100774.75;;;19.09;56.63
28344;BME280;15597;50.914;6.638;2023-05-12T08:34:16;100778.06;;;19.13;56.76
28344;BME280;15597;50.914;6.638;2023-05-12T08:36:41;100784.09;;;19.17;56.48
28344;BME280;15597;50.914;6.638;2023-05-12T08:39:07;100785.63;;;19.21;56.51
28344;BME280;15597;50.914;6.638;2023-05-12T08:41:47;100781.25;;;19.20;56.65
28344;BME280;15597;50.914;6.638;2023-05-12T08:44:17;100784.59;;;19.23;56.23
28344;BME280;15597;50.914;6.638;2023-05-12T08:46:43;100790.59;;;19.27;56.23
28344;BME280;15597;50.914;6.638;2023-05-12T08:49:11;100800.16;;;19.30;56.48
28344;BME280;15597;50.914;6.638;2023-05-12T08:51:42;100794.63;;;19.34;56.45
28344;BME280;15597;50.914;6.638;2023-05-12T08:54:11;100789.91;;;19.39;56.41
28344;BME280;15597;50.914;6.638;2023-05-12T08:56:38;100793.94;;;19.47;56.05
28344;BME280;15597;50.914;6.638;2023-05-12T08:59:07;100793.00;;;19.48;55.95
28344;BME280;15597;50.914;6.638;2023-05-12T09:01:36;100795.47;;;19.51;55.72
28344;BME280;15597;50.914;6.638;2023-05-12T09:04:05;100794.44;;;19.53;55.96
28344;BME280;15597;50.914;6.638;2023-05-12T09:06:31;100802.16;;;19.58;56.15
28344;BME280;15597;50.914;6.638;2023-05-12T09:08:57;100805.41;;;19.63;56.30
28344;BME280;15597;50.914;6.638;2023-05-12T09:11:23;100801.63;;;19.67;55.95
28344;BME280;15597;50.914;6.638;2023-05-12T09:16:21;100796.75;;;19.76;56.06
28344;BME280;15597;50.914;6.638;2023-05-12T09:18:53;100801.03;;;19.78;56.05
28344;BME280;15597;50.914;6.638;2023-05-12T09:21:19;100812.06;;;19.87;55.98
28344;BME280;15597;50.914;6.638;2023-05-12T09:23:58;100805.06;;;19.85;55.69
28344;BME280;15597;50.914;6.638;2023-05-12T09:26:25;100811.75;;;19.93;55.68
28344;BME280;15597;50.914;6.638;2023-05-12T09:28:52;100809.88;;;19.95;55.19
28344;BME280;15597;50.914;6.638;2023-05-12T09:31:23;100809.28;;;19.90;55.26
28344;BME280;15597;50.914;6.638;2023-05-12T09:33:50;100810.88;;;19.92;54.92
28344;BME280;15597;50.914;6.638;2023-05-12T09:36:17;100819.63;;;19.94;55.11
28344;BME280;15597;50.914;6.638;2023-05-12T09:38:43;100816.78;;;19.97;55.15
28344;BME280;15597;50.914;6.638;2023-05-12T09:41:09;100821.91;;;20.00;55.04
28344;BME280;15597;50.914;6.638;2023-05-12T09:43:34;100812.81;;;20.05;54.89
28344;BME280;15597;50.914;6.638;2023-05-12T09:46:04;100823.19;;;20.09;55.15
28344;BME280;15597;50.914;6.638;2023-05-12T09:48:30;100819.25;;;20.17;54.96
28344;BME280;15597;50.914;6.638;2023-05-12T09:50:56;100818.88;;;20.23;54.77
28344;BME280;15597;50.914;6.638;2023-05-12T09:53:23;100822.13;;;20.28;54.41
28344;BME280;15597;50.914;6.638;2023-05-12T09:55:49;100823.00;;;20.28;53.94
28344;BME280;15597;50.914;6.638;2023-05-12T09:58:19;100830.19;;;20.26;54.25
28344;BME280;15597;50.914;6.638;2023-05-12T10:00:45;100830.78;;;20.32;54.07
28344;BME280;15597;50.914;6.638;2023-05-12T10:03:15;100835.16;;;20.33;54.31
28344;BME280;15597;50.914;6.638;2023-05-12T10:05:48;100830.59;;;20.35;53.87
28344;BME280;15597;50.914;6.638;2023-05-12T10:08:20;100831.06;;;20.41;53.99
28344;BME280;15597;50.914;6.638;2023-05-12T10:10:50;100833.38;;;20.48;54.02
28344;BME280;15597;50.914;6.638;2023-05-12T10:13:17;100828.94;;;20.48;53.55
28344;BME280;15597;50.914;6.638;2023-05-12T10:15:43;100835.00;;;20.50;53.64
28344;BME280;15597;50.914;6.638;2023-05-12T10:18:09;100827.69;;;20.54;53.90
28344;BME280;15597;50.914;6.638;2023-05-12T10:20:35;100818.41;;;20.61;54.22
28344;BME280;15597;50.914;6.638;2023-05-12T10:23:02;100821.47;;;20.69;54.05
28344;BME280;15597;50.914;6.638;2023-05-12T10:25:29;100824.38;;;20.81;53.15
28344;BME280;15597;50.914;6.638;2023-05-12T10:27:55;100828.44;;;20.86;53.30
28344;BME280;15597;50.914;6.638;2023-05-12T10:30:21;100822.94;;;20.90;53.39
28344;BME280;15597;50.914;6.638;2023-05-12T10:32:47;100827.22;;;20.92;53.22
28344;BME280;15597;50.914;6.638;2023-05-12T10:35:14;100824.25;;;20.97;53.04
28344;BME280;15597;50.914;6.638;2023-05-12T10:37:41;100822.16;;;21.02;53.23
28344;BME280;15597;50.914;6.638;2023-05-12T10:40:07;100819.03;;;21.10;52.51
28344;BME280;15597;50.914;6.638;2023-05-12T10:42:40;100817.16;;;21.12;52.41
28344;BME280;15597;50.914;6.638;2023-05-12T10:45:16;100817.78;;;21.15;52.74
28344;BME280;15597;50.914;6.638;2023-05-12T10:47:42;100820.84;;;21.24;51.77
28344;BME280;15597;50.914;6.638;2023-05-12T10:50:08;100820.84;;;21.24;51.95
28344;BME280;15597;50.914;6.638;2023-05-12T10:52:58;100824.19;;;21.13;52.32
28344;BME280;15597;50.914;6.638;2023-05-12T10:58:04;100829.94;;;21.20;52.23
28344;BME280;15597;50.914;6.638;2023-05-12T11:00:31;100825.78;;;21.30;51.72
28344;BME280;15597;50.914;6.638;2023-05-12T11:02:56;100827.88;;;21.39;51.70
28344;BME280;15597;50.914;6.638;2023-05-12T11:05:32;100811.91;;;21.39;51.75
28344;BME280;15597;50.914;6.638;2023-05-12T11:07:58;100821.00;;;21.50;51.32
28344;BME280;15597;50.914;6.638;2023-05-12T11:10:27;100826.13;;;21.53;51.32
28344;BME280;15597;50.914;6.638;2023-05-12T11:12:53;100828.78;;;21.53;51.18
28344;BME280;15597;50.914;6.638;2023-05-12T11:15:19;100821.44;;;21.56;50.78
28344;BME280;15597;50.914;6.638;2023-05-12T11:17:45;100827.44;;;21.60;50.85
28344;BME280;15597;50.914;6.638;2023-05-12T11:20:21;100820.41;;;21.59;51.30
28344;BME280;15597;50.914;6.638;2023-05-12T11:22:48;100819.66;;;21.71;50.89
28344;BME280;15597;50.914;6.638;2023-05-12T11:25:14;100831.59;;;21.79;50.94
28344;BME280;15597;50.914;6.638;2023-05-12T11:27:48;100827.03;;;21.81;50.17
28344;BME280;15597;50.914;6.638;2023-05-12T11:30:14;100824.97;;;21.71;51.31
28344;BME280;15597;50.914;6.638;2023-05-12T11:32:40;100820.56;;;21.85;50.37
28344;BME280;15597;50.914;6.638;2023-05-12T11:35:17;100822.25;;;21.86;50.24
28344;BME280;15597;50.914;6.638;2023-05-12T11:37:44;100831.06;;;22.01;49.59
28344;BME280;15597;50.914;6.638;2023-05-12T11:40:15;100831.41;;;22.09;49.70
28344;BME280;15597;50.914;6.638;2023-05-12T11:42:41;100829.91;;;22.18;49.49
28344;BME280;15597;50.914;6.638;2023-05-12T11:45:28;100825.97;;;22.11;48.78
28344;BME280;15597;50.914;6.638;2023-05-12T11:48:09;100834.06;;;22.09;48.78
28344;BME280;15597;50.914;6.638;2023-05-12T11:50:40;100840.25;;;22.10;48.74
28344;BME280;15597;50.914;6.638;2023-05-12T11:53:11;100844.28;;;22.02;48.90
28344;BME280;15597;50.914;6.638;2023-05-12T11:55:53;100850.75;;;21.98;48.76
28344;BME280;15597;50.914;6.638;2023-05-12T11:58:27;100850.25;;;22.06;48.54
28344;BME280;15597;50.914;6.638;2023-05-12T12:00:55;100852.00;;;22.20;48.22
28344;BME280;15597;50.914;6.638;2023-05-12T12:03:22;100845.13;;;22.30;48.01
28344;BME280;15597;50.914;6.638;2023-05-12T12:06:02;100852.78;;;22.35;48.42
28344;BME280;15597;50.914;6.638;2023-05-12T12:08:28;100854.78;;;22.46;48.40
28344;BME280;15597;50.914;6.638;2023-05-12T12:10:53;100860.53;;;22.53;48.35
28344;BME280;15597;50.914;6.638;2023-05-12T12:13:23;100864.69;;;22.57;48.40
28344;BME280;15597;50.914;6.638;2023-05-12T12:15:50;100864.72;;;22.70;48.43
28344;BME280;15597;50.914;6.638;2023-05-12T12:18:16;100865.81;;;22.80;48.82
28344;BME280;15597;50.914;6.638;2023-05-12T12:20:42;100871.91;;;22.95;48.77
28344;BME280;15597;50.914;6.638;2023-05-12T12:23:08;100861.94;;;23.10;48.62
28344;BME280;15597;50.914;6.638;2023-05-12T12:25:34;100866.22;;;23.26;48.64
28344;BME280;15597;50.914;6.638;2023-05-12T12:27:59;100856.94;;;23.44;48.68
28344;BME280;15597;50.914;6.638;2023-05-12T12:30:25;100852.28;;;23.59;48.38
28344;BME280;15597;50.914;6.638;2023-05-12T12:32:50;100853.22;;;23.71;47.78
28344;BME280;15597;50.914;6.638;2023-05-12T12:35:16;100854.72;;;23.75;48.03
28344;BME280;15597;50.914;6.638;2023-05-12T12:37:43;100854.56;;;23.77;47.54
28344;BME280;15597;50.914;6.638;2023-05-12T12:40:15;100858.84;;;23.80;47.50
28344;BME280;15597;50.914;6.638;2023-05-12T12:42:41;100853.28;;;23.83;47.09
28344;BME280;15597;50.914;6.638;2023-05-12T12:45:07;100854.53;;;23.90;47.12
28344;BME280;15597;50.914;6.638;2023-05-12T12:47:33;100847.25;;;23.92;46.87
28344;BME280;15597;50.914;6.638;2023-05-12T12:49:59;100858.59;;;23.96;46.45
28344;BME280;15597;50.914;6.638;2023-05-12T12:52:24;100854.16;;;24.07;46.86
28344;BME280;15597;50.914;6.638;2023-05-12T12:54:50;100853.94;;;24.11;46.33